Terminal Aerodrome Forecast
Issued by NWS

Current Version | Previous Version | Text Only | Print | Product List | Glossary On
Versions: 1 2 3 4 5 6 7 8 9 10 11 12 13 14 15 16 17 18
000
FTUS42 KFFC 242300
TAFFTY
TAF
KFTY 242337Z 2500/2524 25007KT P6SM VCSH SCT030 BKN100
     FM250200 VRB03KT P6SM SCT120
     FM250800 VRB03KT 3SM BR BKN006
     FM251400 28005KT P6SM SCT020
     FM251600 30006KT P6SM SCT040=

USA.gov is the U.S. government's official web portal to all federal, state and local government web resources and services.